Time,TemperatureF,DewpointF,PressureIn,WindDirection,WindDirectionDegrees,WindSpeedMPH,WindSpeedGustMPH,Humidity,HourlyPrecipIn,Conditions,Clouds,dailyrainin,SoftwareType,DateUTC
2013-02-19 00:04:00,40.9,0.0,29.75,SW,223,0.0,0.0,0,0.01,,OVC045,0.00,VWS V13.01,2013-02-19 08:04:00,
2013-02-19 00:09:00,40.9,0.0,29.74,SW,223,0.0,0.0,0,0.01,,OVC045,0.00,VWS V13.01,2013-02-19 08:09:00,
2013-02-19 00:14:00,40.9,0.0,29.74,SW,223,0.0,0.0,0,0.01,,OVC045,0.00,VWS V13.01,2013-02-19 08:14:00,
2013-02-19 00:19:00,40.9,0.0,29.74,SW,223,0.0,1.0,0,0.00,,OVC045,0.00,VWS V13.01,2013-02-19 08:19:00,
2013-02-19 00:24:00,40.9,0.0,29.74,SW,223,0.0,1.0,0,0.00,,OVC045,0.00,VWS V13.01,2013-02-19 08:24:00,
2013-02-19 00:29:00,40.9,0.0,29.74,SW,223,0.0,0.0,0,0.00,,OVC045,0.00,VWS V13.01,2013-02-19 08:29:00,
2013-02-19 00:34:00,40.9,0.0,29.74,SW,223,0.0,0.0,0,0.00,,OVC045,0.00,VWS V13.01,2013-02-19 08:34:00,
2013-02-19 00:39:00,40.8,0.0,29.73,SW,223,0.0,0.0,0,0.00,,OVC045,0.00,VWS V13.01,2013-02-19 08:39:00,
2013-02-19 00:44:00,40.8,0.0,29.73,SW,223,0.0,0.0,0,0.00,,OVC034,0.00,VWS V13.01,2013-02-19 08:44:00,
2013-02-19 00:50:00,40.7,0.0,29.73,SW,223,0.0,0.0,0,0.00,,OVC034,0.00,VWS V13.01,2013-02-19 08:50:00,
2013-02-19 00:55:00,40.8,0.0,29.72,SW,223,0.0,0.0,0,0.00,,OVC042,0.00,VWS V13.01,2013-02-19 08:55:00,
2013-02-19 01:00:00,40.8,0.0,29.72,SW,223,0.0,0.0,0,0.01,,OVC042,0.01,VWS V13.01,2013-02-19 09:00:00,
2013-02-19 01:05:00,40.7,0.0,29.71,SW,223,0.0,0.0,0,0.01,,OVC042,0.01,VWS V13.01,2013-02-19 09:05:00,
2013-02-19 01:10:00,40.7,0.0,29.71,SW,223,0.0,0.0,0,0.01,,OVC042,0.01,VWS V13.01,2013-02-19 09:10:00,
2013-02-19 01:15:00,40.7,0.0,29.71,SW,223,0.0,0.0,0,0.01,,OVC042,0.01,VWS V13.01,2013-02-19 09:15:00,
2013-02-19 01:20:00,40.7,0.0,29.71,SW,223,0.0,1.0,0,0.01,,OVC042,0.01,VWS V13.01,2013-02-19 09:20:00,
2013-02-19 01:25:00,40.7,0.0,29.71,SW,223,0.0,1.0,0,0.01,,OVC042,0.01,VWS V13.01,2013-02-19 09:25:00,
2013-02-19 01:30:00,40.7,0.0,29.70,SW,223,0.0,0.0,0,0.01,,OVC042,0.01,VWS V13.01,2013-02-19 09:30:00,
2013-02-19 01:35:00,40.7,0.0,29.71,SW,223,0.0,2.0,0,0.01,,-RA,0.01,VWS V13.01,2013-02-19 09:35:00,
2013-02-19 01:40:00,40.7,0.0,29.71,SW,223,0.0,2.0,0,0.02,,-RA,0.02,VWS V13.01,2013-02-19 09:40:00,
2013-02-19 01:45:00,40.7,0.0,29.70,SW,223,0.0,0.0,0,0.02,,-RA,0.02,VWS V13.01,2013-02-19 09:45:00,
2013-02-19 01:50:00,40.7,0.0,29.70,SW,223,0.0,0.0,0,0.02,,-RA,0.02,VWS V13.01,2013-02-19 09:50:00,
2013-02-19 01:56:00,40.7,0.0,29.70,SW,223,0.0,0.0,0,0.03,,OVC080,0.03,VWS V13.01,2013-02-19 09:56:00,
2013-02-19 02:01:00,40.7,0.0,29.70,SW,223,0.0,0.0,0,0.02,,OVC080,0.03,VWS V13.01,2013-02-19 10:01:00,
2013-02-19 02:06:00,40.7,0.0,29.69,SW,223,0.0,0.0,0,0.02,,OVC080,0.03,VWS V13.01,2013-02-19 10:06:00,
2013-02-19 02:11:00,40.7,0.0,29.69,SW,223,0.0,0.0,0,0.02,,OVC080,0.03,VWS V13.01,2013-02-19 10:11:00,
2013-02-19 02:16:00,40.7,0.0,29.69,SW,223,0.0,0.0,0,0.03,,OVC080,0.04,VWS V13.01,2013-02-19 10:16:00,
2013-02-19 02:21:00,40.7,0.0,29.68,SW,223,0.0,0.0,0,0.03,,OVC080,0.04,VWS V13.01,2013-02-19 10:21:00,
2013-02-19 02:26:00,40.7,0.0,29.68,SW,223,0.0,0.0,0,0.03,,OVC080,0.04,VWS V13.01,2013-02-19 10:26:00,
2013-02-19 02:31:00,40.7,0.0,29.68,SW,223,0.0,0.0,0,0.04,,OVC080,0.05,VWS V13.01,2013-02-19 10:31:00,
2013-02-19 02:36:00,40.7,0.0,29.68,SW,223,0.0,0.0,0,0.04,,OVC080,0.05,VWS V13.01,2013-02-19 10:36:00,
2013-02-19 02:41:00,40.7,0.0,29.68,SW,223,0.0,0.0,0,0.04,,OVC080,0.05,VWS V13.01,2013-02-19 10:41:00,
2013-02-19 02:46:00,40.7,0.0,29.67,SW,223,0.0,0.0,0,0.03,,OVC080,0.05,VWS V13.01,2013-02-19 10:46:00,
2013-02-19 02:51:00,40.7,0.0,29.67,SW,223,0.0,0.0,0,0.03,,OVC080,0.05,VWS V13.01,2013-02-19 10:51:00,
2013-02-19 02:56:00,40.7,0.0,29.67,SW,223,0.0,0.0,0,0.03,,OVC080,0.05,VWS V13.01,2013-02-19 10:56:00,
2013-02-19 03:01:00,40.7,0.0,29.67,SW,223,0.0,0.0,0,0.02,,OVC080,0.05,VWS V13.01,2013-02-19 11:01:00,
2013-02-19 03:07:00,40.6,0.0,29.67,SW,223,0.0,0.0,0,0.03,,OVC080,0.06,VWS V13.01,2013-02-19 11:07:00,
2013-02-19 03:12:00,40.6,0.0,29.67,SW,223,0.0,0.0,0,0.03,,OVC080,0.06,VWS V13.01,2013-02-19 11:12:00,
2013-02-19 03:17:00,40.6,0.0,29.67,SW,223,0.0,0.0,0,0.02,,OVC080,0.06,VWS V13.01,2013-02-19 11:17:00,
2013-02-19 03:22:00,40.6,0.0,29.67,SW,223,0.0,0.0,0,0.02,,OVC080,0.06,VWS V13.01,2013-02-19 11:22:00,
2013-02-19 03:27:00,40.6,0.0,29.67,SW,223,0.0,0.0,0,0.02,,OVC080,0.06,VWS V13.01,2013-02-19 11:27:00,
2013-02-19 03:32:00,40.6,0.0,29.67,SW,223,0.0,0.0,0,0.02,,OVC080,0.07,VWS V13.01,2013-02-19 11:32:00,
2013-02-19 03:37:00,40.6,0.0,29.66,SW,223,0.0,0.0,0,0.02,,OVC080,0.07,VWS V13.01,2013-02-19 11:37:00,
2013-02-19 03:42:00,40.6,0.0,29.67,SW,223,0.0,0.0,0,0.03,,OVC045,0.08,VWS V13.01,2013-02-19 11:42:00,
2013-02-19 03:47:00,40.6,0.0,29.66,SW,223,0.0,0.0,0,0.04,,OVC045,0.09,VWS V13.01,2013-02-19 11:47:00,
2013-02-19 03:52:00,40.6,0.0,29.66,SW,223,0.0,0.0,0,0.04,,OVC045,0.09,VWS V13.01,2013-02-19 11:52:00,
2013-02-19 03:57:00,40.5,0.0,29.66,SW,223,0.0,0.0,0,0.05,,OVC045,0.10,VWS V13.01,2013-02-19 11:57:00,
2013-02-19 04:02:00,40.5,0.0,29.66,SW,223,0.0,0.0,0,0.05,,OVC045,0.10,VWS V13.01,2013-02-19 12:02:00,
2013-02-19 04:07:00,40.5,0.0,29.66,SW,223,0.0,0.0,0,0.06,,OVC045,0.11,VWS V13.01,2013-02-19 12:07:00,
2013-02-19 04:13:00,40.4,0.0,29.66,SW,223,0.0,2.0,0,0.07,,OVC045,0.12,VWS V13.01,2013-02-19 12:13:00,
2013-02-19 04:18:00,40.2,0.0,29.66,NW,304,2.0,4.0,0,0.06,,OVC045,0.12,VWS V13.01,2013-02-19 12:18:00,
2013-02-19 04:23:00,40.1,0.0,29.66,WNW,301,2.0,4.0,0,0.06,,OVC045,0.12,VWS V13.01,2013-02-19 12:23:00,
2013-02-19 04:28:00,40.0,0.0,29.66,WNW,300,0.0,4.0,0,0.07,,OVC045,0.13,VWS V13.01,2013-02-19 12:28:00,
2013-02-19 04:33:00,40.0,0.0,29.66,WNW,300,0.0,0.0,0,0.06,,OVC045,0.13,VWS V13.01,2013-02-19 12:33:00,
2013-02-19 04:38:00,39.9,0.0,29.66,WNW,300,0.0,0.0,0,0.07,,OVC045,0.14,VWS V13.01,2013-02-19 12:38:00,
2013-02-19 04:43:00,39.8,0.0,29.66,WNW,286,0.0,3.0,0,0.07,,OVC045,0.14,VWS V13.01,2013-02-19 12:43:00,
2013-02-19 04:48:00,39.7,0.0,29.66,WNW,286,0.0,0.0,0,0.06,,OVC045,0.14,VWS V13.01,2013-02-19 12:48:00,
2013-02-19 04:53:00,39.6,0.0,29.66,WNW,286,0.0,1.0,0,0.06,,OVC070,0.14,VWS V13.01,2013-02-19 12:53:00,
2013-02-19 04:58:00,39.5,0.0,29.66,WNW,286,2.0,2.0,0,0.06,,OVC070,0.14,VWS V13.01,2013-02-19 12:58:00,
2013-02-19 05:03:00,39.5,0.0,29.66,WNW,286,0.0,1.0,0,0.04,,OVC070,0.14,VWS V13.01,2013-02-19 13:03:00,
2013-02-19 05:08:00,39.5,0.0,29.66,WNW,286,0.0,1.0,0,0.05,,OVC070,0.15,VWS V13.01,2013-02-19 13:08:00,
2013-02-19 05:13:00,39.4,0.0,29.66,WNW,286,0.0,1.0,0,0.05,,OVC070,0.15,VWS V13.01,2013-02-19 13:13:00,
2013-02-19 05:18:00,39.3,0.0,29.66,WNW,286,0.0,0.0,0,0.03,,OVC070,0.15,VWS V13.01,2013-02-19 13:18:00,
2013-02-19 05:24:00,39.3,0.0,29.66,WNW,286,0.0,0.0,0,0.03,,OVC070,0.15,VWS V13.01,2013-02-19 13:24:00,
2013-02-19 05:29:00,39.3,0.0,29.66,WNW,286,0.0,0.0,0,0.03,,OVC070,0.15,VWS V13.01,2013-02-19 13:29:00,
2013-02-19 05:34:00,39.3,0.0,29.67,WNW,286,0.0,0.0,0,0.02,,-RA,0.15,VWS V13.01,2013-02-19 13:34:00,
2013-02-19 05:39:00,39.2,0.0,29.66,WNW,286,0.0,0.0,0,0.02,,-RA,0.15,VWS V13.01,2013-02-19 13:39:00,
2013-02-19 05:44:00,39.2,0.0,29.66,WNW,286,0.0,0.0,0,0.02,,-RA,0.15,VWS V13.01,2013-02-19 13:44:00,
2013-02-19 05:49:00,39.2,0.0,29.66,WNW,286,0.0,0.0,0,0.01,,-RA,0.15,VWS V13.01,2013-02-19 13:49:00,
2013-02-19 05:54:00,39.2,0.0,29.66,WNW,286,0.0,0.0,0,0.01,,-RA,0.15,VWS V13.01,2013-02-19 13:54:00,
2013-02-19 05:59:00,39.2,0.0,29.66,WNW,286,0.0,0.0,0,0.01,,-RA,0.15,VWS V13.01,2013-02-19 13:59:00,
2013-02-19 06:04:00,39.1,0.0,29.66,WNW,286,0.0,0.0,0,0.01,,-RA,0.15,VWS V13.01,2013-02-19 14:04:00,
2013-02-19 06:09:00,39.1,0.0,29.66,WNW,286,0.0,0.0,0,0.01,,-RA,0.15,VWS V13.01,2013-02-19 14:09:00,
2013-02-19 06:14:00,39.1,0.0,29.67,WNW,286,0.0,0.0,0,0.01,,-RA,0.15,VWS V13.01,2013-02-19 14:14:00,
2013-02-19 06:19:00,39.2,0.0,29.67,WNW,286,0.0,0.0,0,0.00,,-RA,0.15,VWS V13.01,2013-02-19 14:19:00,
2013-02-19 06:24:00,39.2,0.0,29.67,WNW,286,0.0,0.0,0,0.00,,-RA,0.15,VWS V13.01,2013-02-19 14:24:00,
2013-02-19 06:29:00,39.1,0.0,29.67,WNW,286,0.0,0.0,0,0.00,,-RA,0.15,VWS V13.01,2013-02-19 14:29:00,
2013-02-19 06:34:00,39.1,0.0,29.67,WNW,286,0.0,0.0,0,0.00,,-RA,0.15,VWS V13.01,2013-02-19 14:34:00,
2013-02-19 06:39:00,39.1,0.0,29.67,WNW,286,0.0,0.0,0,0.00,,-RA,0.15,VWS V13.01,2013-02-19 14:39:00,
2013-02-19 06:44:00,39.1,0.0,29.67,WNW,286,0.0,0.0,0,0.00,,-RA,0.15,VWS V13.01,2013-02-19 14:44:00,
2013-02-19 06:49:00,39.1,0.0,29.67,WNW,286,0.0,0.0,0,0.00,,-RA,0.15,VWS V13.01,2013-02-19 14:49:00,
2013-02-19 06:54:00,39.1,0.0,29.67,WNW,286,0.0,0.0,0,0.00,,-RA,0.15,VWS V13.01,2013-02-19 14:54:00,
2013-02-19 06:59:00,39.1,0.0,29.68,WNW,286,0.0,0.0,0,0.00,,-RA,0.15,VWS V13.01,2013-02-19 14:59:00,
2013-02-19 07:05:00,39.0,0.0,29.68,WNW,286,0.0,0.0,0,0.00,,-RA,0.15,VWS V13.01,2013-02-19 15:05:00,
2013-02-19 07:10:00,39.0,0.0,29.69,WNW,286,0.0,0.0,0,0.00,,-RA,0.15,VWS V13.01,2013-02-19 15:10:00,
2013-02-19 07:15:00,39.0,0.0,29.69,WNW,286,0.0,0.0,0,0.00,,-RA,0.15,VWS V13.01,2013-02-19 15:15:00,
2013-02-19 07:20:00,39.1,0.0,29.68,WNW,286,0.0,0.0,0,0.00,,-RA,0.15,VWS V13.01,2013-02-19 15:20:00,
2013-02-19 07:25:00,39.1,0.0,29.69,WNW,286,0.0,0.0,0,0.00,,-RA,0.15,VWS V13.01,2013-02-19 15:25:00,
2013-02-19 07:30:00,39.0,0.0,29.69,WNW,286,0.0,0.0,0,0.00,,-RA,0.15,VWS V13.01,2013-02-19 15:30:00,
2013-02-19 07:35:00,39.1,0.0,29.69,WNW,286,0.0,0.0,0,0.00,,-RA,0.15,VWS V13.01,2013-02-19 15:35:00,
2013-02-19 07:40:00,39.1,0.0,29.69,WNW,286,0.0,0.0,0,0.00,,-RA,0.15,VWS V13.01,2013-02-19 15:40:00,
2013-02-19 07:45:00,39.1,0.0,29.70,WNW,286,0.0,0.0,0,0.00,,-RA,0.15,VWS V13.01,2013-02-19 15:45:00,
2013-02-19 07:50:00,39.1,0.0,29.70,WNW,286,0.0,0.0,0,0.00,,-RA,0.15,VWS V13.01,2013-02-19 15:50:00,
2013-02-19 07:55:00,39.1,0.0,29.70,WNW,286,0.0,0.0,0,0.00,,-RA,0.15,VWS V13.01,2013-02-19 15:55:00,
2013-02-19 08:01:00,39.1,0.0,29.70,WNW,286,0.0,0.0,0,0.00,,-RA,0.15,VWS V13.01,2013-02-19 16:01:00,
2013-02-19 08:06:00,39.2,0.0,29.70,WNW,286,0.0,0.0,0,0.00,,-RA,0.15,VWS V13.01,2013-02-19 16:06:00,
2013-02-19 08:11:00,39.2,0.0,29.71,WNW,286,0.0,0.0,0,0.00,,-RA,0.15,VWS V13.01,2013-02-19 16:11:00,
2013-02-19 08:16:00,39.2,0.0,29.71,WNW,286,0.0,0.0,0,0.00,,-RA,0.15,VWS V13.01,2013-02-19 16:16:00,
2013-02-19 08:21:00,39.2,0.0,29.71,WNW,286,0.0,0.0,0,0.00,,-RA,0.15,VWS V13.01,2013-02-19 16:21:00,
2013-02-19 08:26:00,39.3,0.0,29.71,WNW,286,0.0,0.0,0,0.00,,-RA,0.15,VWS V13.01,2013-02-19 16:26:00,
2013-02-19 08:31:00,39.4,0.0,29.72,WNW,286,0.0,0.0,0,0.00,,-RA,0.15,VWS V13.01,2013-02-19 16:31:00,
2013-02-19 08:36:00,39.5,0.0,29.72,WNW,286,0.0,0.0,0,0.00,,-RA,0.15,VWS V13.01,2013-02-19 16:36:00,
2013-02-19 08:41:00,39.6,0.0,29.72,WNW,286,0.0,0.0,0,0.00,,-RA,0.15,VWS V13.01,2013-02-19 16:41:00,
2013-02-19 08:47:00,39.7,0.0,29.72,WNW,286,0.0,0.0,0,0.00,,-RA,0.15,VWS V13.01,2013-02-19 16:47:00,
2013-02-19 08:52:00,39.9,0.0,29.72,WNW,286,0.0,0.0,0,0.00,,OVC022,0.15,VWS V13.01,2013-02-19 16:52:00,
2013-02-19 08:57:00,40.1,0.0,29.73,WNW,286,0.0,0.0,0,0.00,,OVC022,0.15,VWS V13.01,2013-02-19 16:57:00,
2013-02-19 09:02:00,40.3,0.0,29.73,WNW,286,0.0,0.0,0,0.00,,OVC022,0.15,VWS V13.01,2013-02-19 17:02:00,
2013-02-19 09:07:00,40.5,0.0,29.73,WNW,286,0.0,1.0,0,0.01,,OVC022,0.16,VWS V13.01,2013-02-19 17:07:00,
2013-02-19 09:12:00,40.6,0.0,29.73,WNW,286,0.0,1.0,0,0.01,,OVC022,0.16,VWS V13.01,2013-02-19 17:12:00,
2013-02-19 09:17:00,40.7,0.0,29.74,WNW,286,0.0,1.0,0,0.01,,OVC022,0.16,VWS V13.01,2013-02-19 17:17:00,
2013-02-19 09:22:00,41.0,0.0,29.74,WNW,286,0.0,1.0,0,0.01,,OVC022,0.16,VWS V13.01,2013-02-19 17:22:00,
2013-02-19 09:27:00,41.1,0.0,29.74,WNW,286,0.0,1.0,0,0.01,,OVC022,0.16,VWS V13.01,2013-02-19 17:27:00,
2013-02-19 09:32:00,41.1,0.0,29.75,WNW,286,0.0,0.0,0,0.01,,OVC022,0.16,VWS V13.01,2013-02-19 17:32:00,
2013-02-19 09:37:00,41.3,0.0,29.74,WNW,286,0.0,0.0,0,0.01,,OVC022,0.16,VWS V13.01,2013-02-19 17:37:00,
2013-02-19 09:43:00,41.3,0.0,29.75,WNW,286,0.0,0.0,0,0.01,,OVC022,0.16,VWS V13.01,2013-02-19 17:43:00,
2013-02-19 09:48:00,41.4,0.0,29.75,WNW,286,0.0,2.0,0,0.01,,OVC022,0.16,VWS V13.01,2013-02-19 17:48:00,
2013-02-19 09:53:00,41.2,0.0,29.75,WNW,286,0.0,2.0,0,0.01,,OVC022,0.16,VWS V13.01,2013-02-19 17:53:00,
2013-02-19 09:58:00,41.4,0.0,29.75,WNW,286,0.0,2.0,0,0.01,,OVC022,0.16,VWS V13.01,2013-02-19 17:58:00,
2013-02-19 10:03:00,41.6,0.0,29.76,WNW,286,0.0,0.0,0,0.01,,OVC022,0.16,VWS V13.01,2013-02-19 18:03:00,
2013-02-19 10:08:00,41.6,0.0,29.76,WNW,286,0.0,0.0,0,0.01,,OVC022,0.16,VWS V13.01,2013-02-19 18:08:00,
2013-02-19 10:13:00,41.7,0.0,29.76,WNW,286,0.0,0.0,0,0.01,,OVC022,0.16,VWS V13.01,2013-02-19 18:13:00,
2013-02-19 10:18:00,42.0,0.0,29.76,WNW,286,0.0,0.0,0,0.00,,OVC022,0.16,VWS V13.01,2013-02-19 18:18:00,
2013-02-19 10:23:00,42.4,0.0,29.76,WNW,286,0.0,0.0,0,0.00,,OVC022,0.16,VWS V13.01,2013-02-19 18:23:00,
2013-02-19 10:28:00,42.3,0.0,29.76,WNW,287,0.0,1.0,0,0.00,,OVC022,0.16,VWS V13.01,2013-02-19 18:28:00,
2013-02-19 10:33:00,42.3,0.0,29.76,WNW,288,1.0,2.0,0,0.00,,OVC022,0.16,VWS V13.01,2013-02-19 18:33:00,
2013-02-19 10:39:00,42.1,0.0,29.76,WNW,296,0.0,2.0,0,0.00,,OVC022,0.16,VWS V13.01,2013-02-19 18:39:00,
2013-02-19 10:44:00,42.3,0.0,29.77,WNW,296,0.0,2.0,0,0.00,,OVC012,0.16,VWS V13.01,2013-02-19 18:44:00,
2013-02-19 10:49:00,42.3,0.0,29.77,WNW,296,0.0,0.0,0,0.00,,OVC012,0.16,VWS V13.01,2013-02-19 18:49:00,
2013-02-19 10:54:00,42.6,0.0,29.77,WNW,296,0.0,0.0,0,0.00,,OVC012,0.16,VWS V13.01,2013-02-19 18:54:00,
2013-02-19 10:59:00,42.7,0.0,29.77,WNW,296,0.0,0.0,0,0.00,,OVC012,0.16,VWS V13.01,2013-02-19 18:59:00,
2013-02-19 11:04:00,42.7,0.0,29.78,WNW,296,0.0,0.0,0,0.00,,OVC012,0.16,VWS V13.01,2013-02-19 19:04:00,
2013-02-19 11:09:00,42.8,0.0,29.78,WNW,296,0.0,0.0,0,0.00,,OVC012,0.16,VWS V13.01,2013-02-19 19:09:00,
2013-02-19 11:14:00,42.9,0.0,29.78,WNW,296,0.0,0.0,0,0.00,,OVC012,0.16,VWS V13.01,2013-02-19 19:14:00,
2013-02-19 11:19:00,42.8,0.0,29.78,WNW,296,0.0,0.0,0,0.00,,OVC012,0.16,VWS V13.01,2013-02-19 19:19:00,
2013-02-19 11:24:00,42.9,0.0,29.78,NE,40,2.0,3.0,0,0.00,,OVC012,0.16,VWS V13.01,2013-02-19 19:24:00,
2013-02-19 11:29:00,42.9,0.0,29.78,NNE,30,3.0,4.0,0,0.00,,OVC012,0.16,VWS V13.01,2013-02-19 19:29:00,
2013-02-19 11:35:00,42.9,0.0,29.78,NE,40,1.0,4.0,0,0.00,,OVC025,0.16,VWS V13.01,2013-02-19 19:35:00,
2013-02-19 11:40:00,42.9,0.0,29.78,NE,42,4.0,4.0,0,0.00,,OVC025,0.16,VWS V13.01,2013-02-19 19:40:00,
2013-02-19 11:45:00,43.1,0.0,29.78,NE,46,2.0,3.0,0,0.00,,OVC025,0.16,VWS V13.01,2013-02-19 19:45:00,
2013-02-19 11:50:00,43.1,0.0,29.78,NE,51,2.0,6.0,0,0.00,,OVC025,0.16,VWS V13.01,2013-02-19 19:50:00,
2013-02-19 11:55:00,43.0,-51.5,29.79,NE,50,6.0,7.0,1,0.00,,OVC032,0.16,VWS V13.01,2013-02-19 19:55:00,
2013-02-19 12:00:00,43.1,0.0,29.79,NNE,30,1.0,3.0,0,0.00,,OVC032,0.16,VWS V13.01,2013-02-19 20:00:00,
2013-02-19 12:05:00,43.3,0.0,29.79,NNW,343,0.0,4.0,0,0.00,,OVC032,0.16,VWS V13.01,2013-02-19 20:05:00,
2013-02-19 12:10:00,43.4,0.0,29.79,NNW,343,0.0,4.0,0,0.00,,OVC032,0.16,VWS V13.01,2013-02-19 20:10:00,
2013-02-19 12:15:00,43.3,0.0,29.79,North,350,0.0,0.0,0,0.00,,OVC032,0.16,VWS V13.01,2013-02-19 20:15:00,
2013-02-19 12:20:00,43.3,0.0,29.79,NNE,32,0.0,1.0,0,0.00,,OVC032,0.16,VWS V13.01,2013-02-19 20:20:00,
2013-02-19 12:25:00,43.5,0.0,29.80,NNE,32,0.0,1.0,0,0.00,,OVC032,0.16,VWS V13.01,2013-02-19 20:25:00,
2013-02-19 12:31:00,43.7,0.0,29.79,NNE,32,0.0,0.0,0,0.00,,OVC032,0.16,VWS V13.01,2013-02-19 20:31:00,
2013-02-19 12:36:00,43.9,0.0,29.80,North,355,0.0,0.0,0,0.00,,OVC032,0.16,VWS V13.01,2013-02-19 20:36:00,
2013-02-19 12:41:00,44.1,0.0,29.80,NW,313,2.0,2.0,0,0.00,,BKN045,0.16,VWS V13.01,2013-02-19 20:41:00,
2013-02-19 12:46:00,43.9,0.0,29.80,South,191,1.0,2.0,0,0.00,,BKN045,0.16,VWS V13.01,2013-02-19 20:46:00,
2013-02-19 12:51:00,43.9,0.0,29.81,SSE,162,0.0,2.0,0,0.00,,BKN045,0.16,VWS V13.01,2013-02-19 20:51:00,
2013-02-19 12:56:00,43.9,0.0,29.81,SSE,166,1.0,3.0,0,0.00,,BKN045,0.16,VWS V13.01,2013-02-19 20:56:00,
2013-02-19 13:01:00,44.1,0.0,29.81,South,191,0.0,2.0,0,0.00,,BKN045,0.16,VWS V13.01,2013-02-19 21:01:00,
2013-02-19 13:06:00,44.6,0.0,29.81,South,191,1.0,3.0,0,0.00,,BKN045,0.16,VWS V13.01,2013-02-19 21:06:00,
2013-02-19 13:11:00,45.2,0.0,29.81,South,191,0.0,3.0,0,0.00,,BKN045,0.16,VWS V13.01,2013-02-19 21:11:00,
2013-02-19 13:16:00,45.4,15.8,29.81,NNE,30,4.0,9.0,30,0.00,,BKN045,0.16,VWS V13.01,2013-02-19 21:16:00,
2013-02-19 13:21:00,45.2,5.4,29.81,NE,34,5.0,9.0,19,0.00,,BKN045,0.16,VWS V13.01,2013-02-19 21:21:00,
2013-02-19 13:26:00,44.9,9.4,29.81,NNE,31,0.0,9.0,23,0.00,,BKN045,0.16,VWS V13.01,2013-02-19 21:26:00,
2013-02-19 13:31:00,44.9,5.2,29.81,North,9,0.0,3.0,19,0.00,,BKN045,0.16,VWS V13.01,2013-02-19 21:31:00,
2013-02-19 13:36:00,45.0,-8.3,29.82,NE,42,0.0,3.0,10,0.00,,BKN045,0.16,VWS V13.01,2013-02-19 21:36:00,
2013-02-19 13:41:00,45.1,0.0,29.82,NE,42,0.0,3.0,0,0.00,,BKN043,0.16,VWS V13.01,2013-02-19 21:41:00,
2013-02-19 13:47:00,45.2,0.0,29.82,NE,42,0.0,0.0,0,0.00,,BKN043,0.16,VWS V13.01,2013-02-19 21:47:00,
2013-02-19 13:52:00,45.4,0.0,29.82,NE,42,0.0,0.0,0,0.00,,BKN043,0.16,VWS V13.01,2013-02-19 21:52:00,
2013-02-19 13:57:00,45.4,0.0,29.82,South,190,0.0,0.0,0,0.00,,BKN043,0.16,VWS V13.01,2013-02-19 21:57:00,
2013-02-19 14:02:00,45.5,0.0,29.82,South,190,0.0,0.0,0,0.00,,BKN043,0.16,VWS V13.01,2013-02-19 22:02:00,
2013-02-19 14:07:00,45.7,0.0,29.82,South,190,1.0,1.0,0,0.00,,BKN043,0.16,VWS V13.01,2013-02-19 22:07:00,
2013-02-19 14:12:00,46.0,-5.6,29.83,South,190,4.0,4.0,11,0.00,,BKN043,0.16,VWS V13.01,2013-02-19 22:12:00,
2013-02-19 14:17:00,46.5,-3.4,29.83,South,176,2.0,4.0,12,0.00,,BKN043,0.16,VWS V13.01,2013-02-19 22:17:00,
2013-02-19 14:22:00,46.8,5.5,29.83,SSW,210,3.0,4.0,18,0.00,,BKN043,0.16,VWS V13.01,2013-02-19 22:22:00,
2013-02-19 14:27:00,47.0,21.5,29.83,SE,142,3.0,4.0,36,0.00,,BKN043,0.16,VWS V13.01,2013-02-19 22:27:00,
2013-02-19 14:32:00,47.3,21.0,29.83,SE,132,2.0,3.0,35,0.00,,BKN043,0.16,VWS V13.01,2013-02-19 22:32:00,
2013-02-19 14:37:00,47.4,22.5,29.83,SSE,164,0.0,3.0,37,0.00,,BKN043,0.16,VWS V13.01,2013-02-19 22:37:00,
2013-02-19 14:42:00,47.5,0.0,29.83,NE,52,2.0,4.0,0,0.00,,BKN047,0.16,VWS V13.01,2013-02-19 22:42:00,
2013-02-19 14:47:00,47.2,12.3,29.84,NE,51,4.0,5.0,24,0.00,,BKN047,0.16,VWS V13.01,2013-02-19 22:47:00,
2013-02-19 14:53:00,47.5,11.6,29.84,NNE,30,0.0,5.0,23,0.00,,BKN047,0.16,VWS V13.01,2013-02-19 22:53:00,
2013-02-19 14:58:00,47.8,5.1,29.84,NE,40,2.0,5.0,17,0.00,,BKN047,0.16,VWS V13.01,2013-02-19 22:58:00,
2013-02-19 15:03:00,47.8,22.8,29.84,East,86,1.0,4.0,37,0.00,,BKN047,0.16,VWS V13.01,2013-02-19 23:03:00,
2013-02-19 15:08:00,47.7,9.7,29.84,SW,232,2.0,4.0,21,0.00,,BKN047,0.16,VWS V13.01,2013-02-19 23:08:00,
2013-02-19 15:13:00,47.8,24.7,29.84,SE,126,0.0,4.0,40,0.00,,BKN047,0.16,VWS V13.01,2013-02-19 23:13:00,
2013-02-19 15:18:00,48.1,16.5,29.84,SSE,163,0.0,0.0,28,0.00,,BKN047,0.16,VWS V13.01,2013-02-19 23:18:00,
2013-02-19 15:23:00,48.4,8.1,29.84,SSE,167,0.0,0.0,19,0.00,,BKN047,0.16,VWS V13.01,2013-02-19 23:23:00,
2013-02-19 15:28:00,48.3,15.9,29.84,SSE,167,0.0,0.0,27,0.00,,BKN047,0.16,VWS V13.01,2013-02-19 23:28:00,
2013-02-19 15:33:00,47.9,16.4,29.85,SSW,201,2.0,3.0,28,0.00,,BKN047,0.16,VWS V13.01,2013-02-19 23:33:00,
2013-02-19 15:38:00,47.5,-36.9,29.85,South,173,0.0,3.0,2,0.00,,BKN047,0.16,VWS V13.01,2013-02-19 23:38:00,
2013-02-19 15:43:00,47.2,0.0,29.85,South,173,0.0,3.0,0,0.00,,BKN250,0.16,VWS V13.01,2013-02-19 23:43:00,
2013-02-19 15:49:00,46.7,0.0,29.85,South,173,0.0,0.0,0,0.00,,BKN250,0.16,VWS V13.01,2013-02-19 23:49:00,
2013-02-19 15:54:00,46.5,0.0,29.86,South,173,0.0,0.0,0,0.00,,BKN250,0.16,VWS V13.01,2013-02-19 23:54:00,
2013-02-19 15:59:00,46.3,0.0,29.86,South,173,0.0,0.0,0,0.00,,BKN250,0.16,VWS V13.01,2013-02-19 23:59:00,
2013-02-19 16:04:00,46.3,0.0,29.86,South,173,0.0,1.0,0,0.00,,BKN250,0.16,VWS V13.01,2013-02-20 00:04:00,
2013-02-19 16:09:00,46.1,0.0,29.86,SSW,198,0.0,3.0,0,0.00,,BKN250,0.16,VWS V13.01,2013-02-20 00:09:00,
2013-02-19 16:14:00,45.9,0.0,29.86,SSW,198,0.0,3.0,0,0.00,,BKN070,0.16,VWS V13.01,2013-02-20 00:14:00,
2013-02-19 16:19:00,46.2,0.0,29.86,SSW,198,0.0,0.0,0,0.00,,BKN070,0.16,VWS V13.01,2013-02-20 00:19:00,
2013-02-19 16:24:00,46.0,-14.7,29.86,ENE,71,2.0,3.0,7,0.00,,BKN070,0.16,VWS V13.01,2013-02-20 00:24:00,
2013-02-19 16:29:00,45.9,3.6,29.87,NNW,346,0.0,0.0,17,0.00,,BKN070,0.16,VWS V13.01,2013-02-20 00:29:00,
2013-02-19 16:34:00,45.9,-12.1,29.87,NE,54,1.0,4.0,8,0.00,,BKN070,0.16,VWS V13.01,2013-02-20 00:34:00,
2013-02-19 16:39:00,46.0,0.0,29.87,NE,56,0.0,4.0,0,0.00,,BKN070,0.16,VWS V13.01,2013-02-20 00:39:00,
2013-02-19 16:44:00,46.1,0.0,29.87,NE,56,0.0,0.0,0,0.00,,BKN070,0.16,VWS V13.01,2013-02-20 00:44:00,
2013-02-19 16:49:00,46.1,0.0,29.87,ENE,58,0.0,1.0,0,0.00,,BKN070,0.16,VWS V13.01,2013-02-20 00:49:00,
2013-02-19 16:54:00,46.0,0.0,29.87,NE,50,2.0,2.0,0,0.00,,BKN070,0.16,VWS V13.01,2013-02-20 00:54:00,
2013-02-19 17:00:00,46.0,0.0,29.88,NE,40,0.0,0.0,0,0.00,,BKN070,0.16,VWS V13.01,2013-02-20 01:00:00,
2013-02-19 17:05:00,46.0,0.0,29.88,NE,54,3.0,3.0,0,0.00,,BKN070,0.16,VWS V13.01,2013-02-20 01:05:00,
2013-02-19 17:10:00,45.3,-25.9,29.88,NE,53,2.0,10.0,4,0.00,,BKN070,0.17,VWS V13.01,2013-02-20 01:10:00,
2013-02-19 17:15:00,44.7,0.0,29.88,NE,45,0.0,0.0,0,0.03,,BKN070,0.19,VWS V13.01,2013-02-20 01:15:00,
2013-02-19 17:20:00,44.6,0.0,29.88,NE,45,0.0,0.0,0,0.04,,BKN070,0.20,VWS V13.01,2013-02-20 01:20:00,
2013-02-19 17:25:00,44.3,0.0,29.88,NE,45,0.0,0.0,0,0.05,,BKN070,0.21,VWS V13.01,2013-02-20 01:25:00,
2013-02-19 17:30:00,44.0,0.0,29.89,NE,45,0.0,0.0,0,0.06,,BKN070,0.22,VWS V13.01,2013-02-20 01:30:00,
2013-02-19 17:35:00,43.8,0.0,29.89,South,186,0.0,1.0,0,0.07,,BKN070,0.23,VWS V13.01,2013-02-20 01:35:00,
2013-02-19 17:40:00,43.8,0.0,29.89,South,186,0.0,1.0,0,0.07,,BKN070,0.23,VWS V13.01,2013-02-20 01:40:00,
2013-02-19 17:45:00,43.6,0.0,29.89,South,186,0.0,0.0,0,0.07,,SCT075,0.23,VWS V13.01,2013-02-20 01:45:00,
2013-02-19 17:50:00,43.6,0.0,29.89,South,186,0.0,0.0,0,0.07,,SCT075,0.23,VWS V13.01,2013-02-20 01:50:00,
2013-02-19 17:55:00,43.4,0.0,29.89,South,186,0.0,0.0,0,0.07,,SCT075,0.23,VWS V13.01,2013-02-20 01:55:00,
2013-02-19 18:00:00,43.3,0.0,29.90,South,186,0.0,0.0,0,0.07,,SCT075,0.23,VWS V13.01,2013-02-20 02:00:00,
2013-02-19 18:05:00,43.1,0.0,29.90,South,186,0.0,0.0,0,0.07,,SCT075,0.23,VWS V13.01,2013-02-20 02:05:00,
2013-02-19 18:11:00,43.0,0.0,29.90,South,186,0.0,0.0,0,0.07,,SCT075,0.23,VWS V13.01,2013-02-20 02:11:00,
2013-02-19 18:16:00,42.8,0.0,29.91,South,186,0.0,0.0,0,0.04,,SCT075,0.23,VWS V13.01,2013-02-20 02:16:00,
2013-02-19 18:21:00,42.5,0.0,29.91,South,186,0.0,0.0,0,0.04,,SCT075,0.23,VWS V13.01,2013-02-20 02:21:00,
2013-02-19 18:26:00,42.3,0.0,29.92,South,186,0.0,0.0,0,0.04,,SCT075,0.23,VWS V13.01,2013-02-20 02:26:00,
2013-02-19 18:31:00,42.2,0.0,29.92,South,186,0.0,0.0,0,0.01,,SCT075,0.23,VWS V13.01,2013-02-20 02:31:00,
2013-02-19 18:36:00,42.1,0.0,29.92,South,186,0.0,0.0,0,0.01,,SCT075,0.23,VWS V13.01,2013-02-20 02:36:00,
2013-02-19 18:41:00,42.0,0.0,29.92,South,186,0.0,0.0,0,0.01,,SCT065,0.23,VWS V13.01,2013-02-20 02:41:00,
2013-02-19 18:46:00,42.0,0.0,29.92,South,186,0.0,0.0,0,0.00,,SCT065,0.23,VWS V13.01,2013-02-20 02:46:00,
2013-02-19 18:51:00,41.9,0.0,29.93,South,186,0.0,0.0,0,0.00,,SCT065,0.23,VWS V13.01,2013-02-20 02:51:00,
2013-02-19 18:57:00,42.0,0.0,29.93,South,186,0.0,0.0,0,0.00,,SCT065,0.23,VWS V13.01,2013-02-20 02:57:00,
2013-02-19 19:02:00,42.0,0.0,29.94,South,186,0.0,0.0,0,0.00,,SCT065,0.23,VWS V13.01,2013-02-20 03:02:00,
2013-02-19 19:07:00,42.1,0.0,29.94,South,186,0.0,0.0,0,0.00,,SCT065,0.23,VWS V13.01,2013-02-20 03:07:00,
2013-02-19 19:12:00,42.1,0.0,29.94,South,186,0.0,0.0,0,0.00,,SCT065,0.23,VWS V13.01,2013-02-20 03:12:00,
2013-02-19 19:17:00,42.1,0.0,29.94,South,186,0.0,0.0,0,0.00,,SCT065,0.23,VWS V13.01,2013-02-20 03:17:00,
2013-02-19 19:22:00,42.2,0.0,29.94,South,186,0.0,0.0,0,0.00,,SCT065,0.23,VWS V13.01,2013-02-20 03:22:00,
2013-02-19 19:27:00,42.2,0.0,29.95,South,186,0.0,0.0,0,0.00,,SCT065,0.23,VWS V13.01,2013-02-20 03:27:00,
2013-02-19 19:32:00,42.1,0.0,29.95,South,186,0.0,0.0,0,0.00,,SCT065,0.23,VWS V13.01,2013-02-20 03:32:00,
2013-02-19 19:37:00,42.0,0.0,29.95,South,186,0.0,0.0,0,0.00,,SCT065,0.23,VWS V13.01,2013-02-20 03:37:00,
2013-02-19 19:42:00,42.0,0.0,29.95,South,186,0.0,0.0,0,0.00,,BKN065,0.23,VWS V13.01,2013-02-20 03:42:00,
2013-02-19 19:48:00,41.9,0.0,29.95,South,186,0.0,0.0,0,0.00,,BKN065,0.23,VWS V13.01,2013-02-20 03:48:00,
2013-02-19 19:53:00,41.7,0.0,29.96,South,186,0.0,0.0,0,0.00,,BKN065,0.23,VWS V13.01,2013-02-20 03:53:00,
2013-02-19 19:58:00,41.5,0.0,29.96,South,186,0.0,0.0,0,0.00,,BKN065,0.23,VWS V13.01,2013-02-20 03:58:00,
2013-02-19 20:03:00,41.4,0.0,29.96,South,186,0.0,0.0,0,0.00,,BKN065,0.23,VWS V13.01,2013-02-20 04:03:00,
2013-02-19 20:08:00,41.2,0.0,29.97,South,186,0.0,0.0,0,0.00,,BKN065,0.23,VWS V13.01,2013-02-20 04:08:00,
2013-02-19 20:13:00,41.1,0.0,29.97,South,186,0.0,0.0,0,0.00,,BKN065,0.23,VWS V13.01,2013-02-20 04:13:00,
2013-02-19 20:18:00,41.1,0.0,29.97,South,186,0.0,0.0,0,0.00,,BKN065,0.23,VWS V13.01,2013-02-20 04:18:00,
2013-02-19 20:23:00,41.0,0.0,29.97,South,186,0.0,0.0,0,0.00,,BKN065,0.23,VWS V13.01,2013-02-20 04:23:00,
2013-02-19 20:28:00,40.9,0.0,29.97,South,186,0.0,0.0,0,0.00,,BKN065,0.23,VWS V13.01,2013-02-20 04:28:00,
2013-02-19 20:33:00,40.8,0.0,29.97,South,186,0.0,0.0,0,0.00,,BKN065,0.23,VWS V13.01,2013-02-20 04:33:00,
2013-02-19 20:38:00,40.8,0.0,29.98,South,186,0.0,0.0,0,0.00,,BKN065,0.23,VWS V13.01,2013-02-20 04:38:00,
2013-02-19 20:44:00,40.7,0.0,29.98,South,186,0.0,0.0,0,0.00,,BKN065,0.23,VWS V13.01,2013-02-20 04:44:00,
2013-02-19 20:49:00,40.6,0.0,29.98,South,186,0.0,0.0,0,0.00,,BKN065,0.23,VWS V13.01,2013-02-20 04:49:00,
2013-02-19 20:54:00,40.5,0.0,29.99,South,186,1.0,2.0,0,0.00,,BKN065,0.23,VWS V13.01,2013-02-20 04:54:00,
2013-02-19 20:59:00,40.4,0.0,29.99,South,186,0.0,2.0,0,0.00,,BKN065,0.23,VWS V13.01,2013-02-20 04:59:00,
2013-02-19 21:00:00,40.4,0.0,29.99,South,186,0.0,0.0,0,0.00,,BKN065,0.23,VWS V13.01,2013-02-20 05:00:00,
2013-02-19 21:05:00,40.2,0.0,29.99,South,186,0.0,0.0,0,0.00,,BKN065,0.23,VWS V13.01,2013-02-20 05:05:00,
2013-02-19 21:10:00,40.2,0.0,30.00,South,186,0.0,0.0,0,0.00,,BKN065,0.23,VWS V13.01,2013-02-20 05:10:00,
2013-02-19 21:15:00,40.2,0.0,30.00,South,186,0.0,0.0,0,0.00,,BKN065,0.23,VWS V13.01,2013-02-20 05:15:00,
2013-02-19 21:21:00,40.0,0.0,30.00,South,186,0.0,2.0,0,0.00,,BKN065,0.23,VWS V13.01,2013-02-20 05:21:00,
2013-02-19 21:26:00,39.9,0.0,30.00,South,186,0.0,2.0,0,0.00,,BKN065,0.23,VWS V13.01,2013-02-20 05:26:00,
2013-02-19 21:31:00,39.7,0.0,30.00,South,186,0.0,0.0,0,0.00,,BKN065,0.23,VWS V13.01,2013-02-20 05:31:00,
2013-02-19 21:36:00,39.6,0.0,30.00,South,186,0.0,0.0,0,0.00,,BKN065,0.23,VWS V13.01,2013-02-20 05:36:00,
2013-02-19 21:41:00,39.6,0.0,30.00,South,186,0.0,0.0,0,0.00,,OVC042,0.23,VWS V13.01,2013-02-20 05:41:00,
2013-02-19 21:46:00,39.6,0.0,30.01,South,186,0.0,0.0,0,0.00,,OVC042,0.23,VWS V13.01,2013-02-20 05:46:00,
2013-02-19 21:51:00,39.5,0.0,30.01,South,186,0.0,0.0,0,0.00,,OVC042,0.23,VWS V13.01,2013-02-20 05:51:00,
2013-02-19 21:56:00,39.4,0.0,30.01,South,186,0.0,0.0,0,0.00,,OVC042,0.23,VWS V13.01,2013-02-20 05:56:00,
2013-02-19 22:01:00,39.3,0.0,30.01,South,186,0.0,0.0,0,0.00,,OVC042,0.23,VWS V13.01,2013-02-20 06:01:00,
2013-02-19 22:06:00,39.3,0.0,30.01,South,186,0.0,0.0,0,0.00,,OVC042,0.23,VWS V13.01,2013-02-20 06:06:00,
2013-02-19 22:11:00,39.2,0.0,30.02,South,186,0.0,0.0,0,0.00,,OVC042,0.23,VWS V13.01,2013-02-20 06:11:00,
2013-02-19 22:17:00,39.2,0.0,30.02,South,186,0.0,0.0,0,0.00,,OVC042,0.23,VWS V13.01,2013-02-20 06:17:00,
2013-02-19 22:22:00,39.1,0.0,30.02,South,186,0.0,1.0,0,0.00,,OVC042,0.23,VWS V13.01,2013-02-20 06:22:00,
2013-02-19 22:27:00,39.0,0.0,30.02,South,186,0.0,1.0,0,0.00,,OVC042,0.23,VWS V13.01,2013-02-20 06:27:00,
2013-02-19 22:32:00,38.9,0.0,30.02,South,186,0.0,0.0,0,0.00,,OVC042,0.23,VWS V13.01,2013-02-20 06:32:00,
2013-02-19 22:37:00,38.9,0.0,30.02,South,186,0.0,0.0,0,0.00,,OVC042,0.23,VWS V13.01,2013-02-20 06:37:00,
2013-02-19 22:42:00,38.8,0.0,30.02,South,186,0.0,0.0,0,0.00,,BKN044,0.23,VWS V13.01,2013-02-20 06:42:00,
2013-02-19 22:47:00,38.7,0.0,30.03,South,186,0.0,0.0,0,0.00,,BKN044,0.23,VWS V13.01,2013-02-20 06:47:00,
2013-02-19 22:52:00,38.6,0.0,30.03,South,186,0.0,0.0,0,0.00,,BKN044,0.23,VWS V13.01,2013-02-20 06:52:00,
2013-02-19 22:57:00,38.6,0.0,30.03,South,186,0.0,0.0,0,0.00,,BKN044,0.23,VWS V13.01,2013-02-20 06:57:00,
2013-02-19 23:02:00,38.5,0.0,30.03,South,186,0.0,0.0,0,0.00,,BKN044,0.23,VWS V13.01,2013-02-20 07:02:00,
2013-02-19 23:07:00,38.4,0.0,30.03,South,186,0.0,0.0,0,0.00,,BKN044,0.23,VWS V13.01,2013-02-20 07:07:00,
2013-02-19 23:13:00,38.4,0.0,30.03,South,186,0.0,0.0,0,0.00,,BKN044,0.23,VWS V13.01,2013-02-20 07:13:00,
2013-02-19 23:18:00,38.3,0.0,30.03,South,186,0.0,0.0,0,0.00,,BKN044,0.23,VWS V13.01,2013-02-20 07:18:00,
2013-02-19 23:23:00,38.2,0.0,30.03,South,186,0.0,0.0,0,0.00,,BKN044,0.23,VWS V13.01,2013-02-20 07:23:00,
2013-02-19 23:28:00,38.2,0.0,30.03,South,186,0.0,0.0,0,0.00,,BKN044,0.23,VWS V13.01,2013-02-20 07:28:00,
2013-02-19 23:33:00,38.1,0.0,30.04,South,186,0.0,0.0,0,0.00,,BKN044,0.23,VWS V13.01,2013-02-20 07:33:00,
2013-02-19 23:38:00,38.1,0.0,30.04,SE,131,0.0,0.0,0,0.00,,BKN044,0.23,VWS V13.01,2013-02-20 07:38:00,
2013-02-19 23:43:00,38.0,0.0,30.04,SE,131,0.0,0.0,0,0.00,,BKN045,0.23,VWS V13.01,2013-02-20 07:43:00,
2013-02-19 23:48:00,37.9,0.0,30.04,ESE,116,0.0,0.0,0,0.00,,BKN045,0.23,VWS V13.01,2013-02-20 07:48:00,
2013-02-19 23:53:00,37.8,0.0,30.04,ESE,116,0.0,0.0,0,0.00,,BKN045,0.23,VWS V13.01,2013-02-20 07:53:00,
2013-02-19 23:58:00,37.7,0.0,30.05,ESE,116,0.0,0.0,0,0.00,,BKN045,0.23,VWS V13.01,2013-02-20 07:58:00,